• Join FlightAware (Why Join?)
  • Login
  • US Flag 
02:49AM EST


 

Airport Tracker/Info


-or-


 

Live Flight TrackerFlight Track Log ✈ N7890Y ✈ 15-Sep-2013 ✈ KBTV - Y70

Flight Track Log - Related Links

Times and Time Zones

All times are in EDT time to prevent confusion due to time zone crossing. See the N7890Y flight status page for this flight to view local times or setup timezone preferences in your user account.

Time Position Orientation Groundspeed Altitude Reporting Facility
EDT Latitude Longitude Course Direction KTS MPH feet Rate Location/Type
12:11PM 44.4463 -73.4905 242° Southwest  Level Estimated
12:12PM 44.4173 -73.5297 224° Southwest  Level FlightAware Approximate
12:13PM 44.3883 -73.5690 224° Southwest  Level FlightAware Approximate
12:14PM 44.3592 -73.6082 224° Southwest  Level FlightAware Approximate
12:15PM 44.3552 -73.6643 240° Southwest  Level Estimated
12:15PM 44.2981 -73.4931 232° Southwest 106 122 7,600  Level Boston Center
12:16PM 44.3305 -73.7089 232° Southwest  Level FlightAware Approximate
12:16PM 44.2853 -73.5275 243° Southwest 111 128 8,000  Level Boston Center
12:17PM 44.3058 -73.7534 232° Southwest  Level FlightAware Approximate
12:17PM 44.2661 -73.5708 238° Southwest 128 147 8,100  Level Boston Center
12:18PM 44.2810 -73.7980 232° Southwest  Level FlightAware Approximate
12:18PM 44.2533 -73.6139 248° West 142 163 8,000  Level Boston Center
12:19PM 44.2563 -73.8425 232° Southwest  Level FlightAware Approximate
12:19PM 44.2300 -73.6569 233° Southwest 142 163 7,900  Level Boston Center
12:20PM 44.2315 -73.8869 232° Southwest  Level FlightAware Approximate
12:20PM 44.2086 -73.7058 239° Southwest 148 170 8,000  Level Boston Center
12:21PM 44.1872 -73.7517 237° Southwest 148 170 7,900 -50 Descending Boston Center
12:22PM 44.1700 -73.7975 242° Southwest 142 163 7,900  Level Boston Center
12:23PM 44.1528 -73.8492 245° Southwest 142 163 7,900  Level Boston Center
12:24PM 44.1333 -73.8950 239° Southwest 142 163 7,900 50 Level Boston Center
12:25PM 44.1119 -73.9494 241° Southwest 137 158 8,000 51 Climbing Boston Center
12:26PM 44.0944 -73.9953 242° Southwest 137 158 8,000  Level Boston Center
12:27PM 44.0794 -74.0383 244° Southwest 132 152 8,000  Level Boston Center
12:28PM 44.0600 -74.0869 241° Southwest 144 166 8,000  Level Boston Center
12:29PM 44.0383 -74.1325 237° Southwest 144 166 8,000  Level Boston Center
12:30PM 44.0189 -74.1781 239° Southwest 144 166 8,000  Level Boston Center
12:31PM 43.9994 -74.2267 241° Southwest 139 160 8,000  Level Boston Center
12:32PM 43.9800 -74.2722 239° Southwest 139 160 8,000  Level Boston Center
12:33PM 43.9625 -74.3178 242° Southwest 139 160 8,000  Level Boston Center
12:34PM 43.9453 -74.3633 242° Southwest 139 160 8,000  Level Boston Center
12:35PM 43.9256 -74.4117 240° Southwest 139 160 8,000  Level Boston Center
12:36PM 43.9061 -74.4544 238° Southwest 139 160 8,000  Level Boston Center
12:37PM 43.8947 -74.5058 253° West 139 160 8,000  Level Boston Center
12:38PM 43.8897 -74.5575 262° West 134 154 8,000  Level Boston Center
12:39PM 43.8867 -74.6122 266° West 134 154 8,000  Level Boston Center
12:40PM 43.8814 -74.6608 261° West 140 161 8,000  Level Boston Center
12:40PM 43.8892 -74.6986 286° West 139 160 8,000  Level Boston Center
12:41PM 43.8889 -74.7044 266° West 139 160 8,000  Level Boston Center
12:41PM 43.8742 -74.7153 208° Southwest 140 161 8,000  Level Boston Center
12:42PM 43.8817 -74.7589 283° West 139 160 8,000  Level Boston Center
12:42PM 43.8689 -74.7669 204° Southwest 140 161 8,000  Level Boston Center
12:43PM 43.8764 -74.8106 283° West 138 159 8,000  Level Boston Center
12:43PM 43.8658 -74.8217 217° Southwest 140 161 8,000  Level Boston Center
12:44PM 43.8711 -74.8681 279° West 139 160 8,000  Level Boston Center
12:44PM 43.8606 -74.8733 200° South 140 161 8,000  Level Boston Center
12:45PM 43.8636 -74.9167 276° West 141 162 8,000  Level Boston Center
12:45PM 43.8550 -74.9278 223° Southwest 140 161 8,000  Level Boston Center
12:46PM 43.8583 -74.9711 276° West 141 162 8,000  Level Boston Center
12:46PM 43.8478 -74.9822 217° Southwest 140 161 8,000  Level Boston Center
12:47PM 43.8508 -75.0283 275° West 140 161 8,000  Level Boston Center
12:47PM 43.8444 -75.0339 212° Southwest 140 161 8,000  Level Boston Center
12:48PM 43.8369 -75.0853 259° West 140 161 8,000 -52 Level Boston Center
12:49PM 43.8400 -75.1372 275° West 142 163 7,900 -98 Descending Boston Center
12:49PM 43.8336 -75.1400 197° South 140 161 7,900 95 Level Boston Center
12:50PM 43.8303 -75.1886 265° West 140 161 8,000 100 Climbing Boston Center
12:50PM 43.8281 -75.1944 242° Southwest 140 161 8,000 -100 Level Boston Center
12:51PM 43.8250 -75.2431 265° West 141 162 7,900 -100 Descending Boston Center
12:51PM 43.8206 -75.2486 222° Southwest 146 168 7,900  Level Boston Center
12:52PM 43.8194 -75.2947 268° West 141 162 7,900  Level Boston Center
12:52PM 43.8153 -75.3003 224° Southwest 146 168 7,900 95 Level Boston Center
12:53PM 43.8117 -75.3547 265° West 141 162 8,000 95 Climbing Boston Center
12:53PM 43.8136 -75.3578 311° West 141 162 8,000  Level Boston Center
12:54PM 43.8042 -75.4092 256° West 141 162 8,000 98 Level Boston Center
12:54PM 43.8042 -75.4061 90° East 140 161 8,100 98 Climbing Boston Center
12:55PM 43.7986 -75.4606 262° West 141 162 8,100  Level Boston Center
12:55PM 43.7986 -75.4633 270° West 140 161 8,100  Level Boston Center
12:56PM 43.7931 -75.5150 262° West 141 162 8,100  Level Boston Center
12:57PM 43.7872 -75.5694 262° West 143 165 8,100 53 Level Boston Center
12:58PM 43.7797 -75.6206 259° West 144 166 8,200 53 Climbing Boston Center
12:59PM 43.7739 -75.6781 262° West 143 165 8,200  Level Boston Center
01:00PM 43.7683 -75.7294 262° West 144 166 8,200  Level Boston Center
01:01PM 43.7603 -75.7836 258° West 143 165 8,200 -49 Level Boston Center
01:02PM 43.7525 -75.8406 259° West 144 166 8,100 -50 Descending Boston Center
01:03PM 43.7467 -75.8950 262° West 142 163 8,100  Level Boston Center
01:04PM 43.7411 -75.9436 261° West 141 162 8,100  Level Boston Center
01:05PM 43.7331 -76.0006 259° West 141 162 8,100 -50 Level Boston Center
01:06PM 43.7269 -76.0578 262° West 143 165 8,000 -49 Descending Boston Center
01:07PM 43.7211 -76.1147 262° West 144 166 8,000  Level Boston Center
01:08PM 43.7131 -76.1661 258° West 140 161 8,000  Level Boston Center
01:09PM 43.7050 -76.2231 259° West 143 165 8,000  Level Boston Center
01:10PM 43.6969 -76.2800 259° West 141 162 8,000  Level Boston Center
01:11PM 43.7017 -76.3206 279° West 142 163 8,000  Level Boston Center
01:11PM 43.6989 -76.3433 260° West 143 165 8,000  Level Boston Center
01:12PM 43.6931 -76.3944 261° West 141 162 8,000  Level Boston Center
01:13PM 43.6869 -76.4458 261° West 138 159 8,000  Level Boston Center
01:15PM 43.6731 -76.5625 261° West 138 159 8,000  Level Cleveland Center
01:16PM 43.6664 -76.6139 260° West 137 158 8,000  Level Cleveland Center
01:17PM 43.6597 -76.6700 261° West 139 160 8,000  Level Cleveland Center
01:18PM 43.6536 -76.7233 261° West 140 161 8,000  Level Cleveland Center
01:19PM 43.6472 -76.7753 260° West 139 160 8,000  Level Cleveland Center
01:21PM 43.6408 -76.8278 260° West 139 160 8,000  Level Cleveland Center
01:22PM 43.6336 -76.8903 261° West 138 159 8,000 48 Level Cleveland Center
01:23PM 43.6269 -76.9442 260° West 141 162 8,100  Climbing Cleveland Center
01:24PM 43.6206 -76.9969 261° West 141 162 8,000 -48 Descending Cleveland Center
01:25PM 43.6136 -77.0503 260° West 141 162 8,000  Level Cleveland Center
01:26PM 43.6078 -77.1028 261° West 140 161 8,000  Level Cleveland Center
01:27PM 43.6008 -77.1558 260° West 140 161 8,000  Level Cleveland Center
01:28PM 43.5931 -77.2183 260° West 139 160 8,000 -48 Level Cleveland Center
01:29PM 43.5872 -77.2697 261° West 138 159 7,900 -48 Descending Cleveland Center
01:30PM 43.5808 -77.3222 260° West 138 159 7,900 48 Level Cleveland Center
01:31PM 43.5742 -77.3744 260° West 139 160 8,000 48 Climbing Cleveland Center
01:32PM 43.5672 -77.4261 260° West 137 158 8,000  Level Cleveland Center
01:33PM 43.5606 -77.4789 260° West 140 161 8,000  Level Cleveland Center
01:34PM 43.5533 -77.5419 261° West 139 160 8,000  Level Cleveland Center
01:35PM 43.5469 -77.5931 260° West 137 158 8,000  Level Cleveland Center
01:36PM 43.5397 -77.6461 259° West 141 162 8,000 -48 Level Cleveland Center
01:37PM 43.5331 -77.6997 260° West 144 166 7,900 -48 Descending Cleveland Center
01:38PM 43.5267 -77.7522 260° West 139 160 7,900  Level Cleveland Center
01:39PM 43.5175 -77.8164 259° West 144 166 7,900 48 Level Cleveland Center
01:40PM 43.5114 -77.8692 261° West 140 161 8,000  Climbing Cleveland Center
01:41PM 43.5036 -77.9228 259° West 143 165 7,900 -48 Descending Cleveland Center
01:42PM 43.4975 -77.9750 261° West 139 160 7,900  Level Cleveland Center
01:43PM 43.4906 -78.0275 260° West 140 161 7,900 48 Level Cleveland Center
01:44PM 43.4839 -78.0797 260° West 139 160 8,000 48 Climbing Cleveland Center
01:45PM 43.4750 -78.1436 259° West 139 160 8,000  Level Cleveland Center
01:46PM 43.4689 -78.1947 261° West 140 161 8,000  Level Cleveland Center
01:47PM 43.4614 -78.2492 259° West 140 161 8,000 48 Level Cleveland Center
01:48PM 43.4544 -78.3058 260° West 142 163 8,100 48 Climbing Cleveland Center
01:49PM 43.4464 -78.3622 259° West 145 167 8,100  Level Cleveland Center
01:51PM 43.4389 -78.4203 260° West 147 169 8,100  Level Cleveland Center
01:52PM 43.4306 -78.4775 259° West 149 171 8,100 -48 Level Cleveland Center
01:53PM 43.4228 -78.5297 258° West 145 167 8,000 -48 Descending Cleveland Center
01:54PM 43.4172 -78.5831 262° West 143 165 8,000  Level Cleveland Center
01:55PM 43.4086 -78.6386 258° West 147 169 8,000  Level Cleveland Center
01:56PM 43.4006 -78.6908 258° West 144 166 8,000  Level Cleveland Center
01:57PM 43.3939 -78.7433 260° West 141 162 8,000 -49 Level Cleveland Center
01:58PM 43.3833 -78.7833 250° West 140 161 7,900 -50 Descending Toronto Center
01:59PM 43.3667 -78.8333 245° Southwest 140 161 7,900 -50 Level Toronto Center
02:00PM 43.3667 -78.9000 270° West 140 161 7,800  Descending Toronto Center
02:01PM 43.3500 -78.9500 245° Southwest 140 161 7,900 50 Climbing Toronto Center
02:02PM 43.3500 -78.9833 270° West 150 173 7,900  Level Toronto Center
02:03PM 43.3500 -79.0667 270° West 150 173 7,900  Level Toronto Center
02:04PM 43.3333 -79.1000 236° Southwest 140 161 7,900  Level Toronto Center
02:05PM 43.3333 -79.1500 270° West 140 161 7,900  Level Toronto Center
02:06PM 43.3167 -79.2167 251° West 140 161 7,900 50 Level Toronto Center
02:07PM 43.3167 -79.2667 270° West 140 161 8,000 50 Climbing Toronto Center
02:08PM 43.3000 -79.3333 251° West 140 161 8,000  Level Toronto Center
02:09PM 43.3000 -79.3833 270° West 140 161 8,000  Level Toronto Center
02:10PM 43.2833 -79.4333 245° Southwest 140 161 8,000  Level Toronto Center
02:11PM 43.2833 -79.5000 270° West 150 173 8,000  Level Toronto Center
02:12PM 43.2667 -79.5333 236° Southwest 140 161 8,000  Level Toronto Center
02:13PM 43.2667 -79.5833 270° West 150 173 8,000  Level Toronto Center
02:14PM 43.2500 -79.6500 251° West 150 173 8,000  Level Toronto Center
02:15PM 43.2500 -79.7000 270° West 140 161 8,000  Level Toronto Center
02:16PM 43.2333 -79.7667 251° West 140 161 8,000  Level Toronto Center
02:17PM 43.2333 -79.8167 270° West 140 161 8,000 -50 Level Toronto Center
02:18PM 43.2167 -79.8667 245° Southwest 140 161 7,900 -50 Descending Toronto Center
02:19PM 43.2167 -79.9000 270° West 140 161 7,900  Level Toronto Center
02:20PM 43.2000 -79.9833 255° West 140 161 7,900  Level Toronto Center
02:21PM 43.2000 -80.0167 270° West 140 161 7,900 -50 Level Toronto Center
02:22PM 43.2000 -80.0833 270° West 140 161 7,800  Descending Toronto Center
02:23PM 43.2000 -80.1333 270° West 140 161 7,900 100 Climbing Toronto Center
02:24PM 43.2000 -80.1833 270° West 140 161 8,000 50 Climbing Toronto Center
02:25PM 43.1833 -80.2500 251° West 140 161 8,000  Level Toronto Center
02:26PM 43.1833 -80.3000 270° West 140 161 8,000 -50 Level Toronto Center
02:27PM 43.1833 -80.3500 270° West 140 161 7,900  Descending Toronto Center
02:28PM 43.1833 -80.4167 270° West 140 161 8,000  Climbing Toronto Center
02:29PM 43.1833 -80.4500 270° West 140 161 7,900  Descending Toronto Center
02:30PM 43.1833 -80.5000 270° West 140 161 8,000 50 Climbing Toronto Center
02:31PM 43.1833 -80.5667 270° West 140 161 8,000 -50 Level Toronto Center
02:32PM 43.1833 -80.6167 270° West 140 161 7,900 -250 Descending Toronto Center
02:33PM 43.1833 -80.6833 270° West 150 173 7,500 -350 Descending Toronto Center
02:34PM 43.1833 -80.7333 270° West 150 173 7,200 -250 Descending Toronto Center
02:35PM 43.1667 -80.8000 251° West 160 184 7,000 -150 Descending Toronto Center
02:36PM 43.1500 -80.8500 245° Southwest 160 184 6,900 -100 Descending Toronto Center
02:37PM 43.1500 -80.9167 270° West 150 173 6,800 -250 Descending Toronto Center
02:38PM 43.1500 -80.9667 270° West 160 184 6,400 -350 Descending Toronto Center
02:39PM 43.1500 -81.0333 270° West 160 184 6,100 -150 Descending Toronto Center
02:40PM 43.1500 -81.1000 270° West 150 173 6,100 -100 Level Toronto Center
02:41PM 43.1500 -81.1333 270° West 150 173 5,900 -100 Descending Toronto Center
02:42PM 43.1500 -81.2167 270° West 150 173 5,900  Level Toronto Center
02:43PM 43.1500 -81.2500 270° West 140 161 5,900  Level Toronto Center
02:44PM 43.1500 -81.3000 270° West 140 161 5,900  Level Toronto Center
02:45PM 43.1500 -81.3667 270° West 140 161 5,900  Level Toronto Center
02:46PM 43.1333 -81.4167 245° Southwest 140 161 5,900  Level Toronto Center
02:47PM 43.1333 -81.4667 270° West 140 161 5,900  Level Toronto Center
02:48PM 43.1333 -81.5333 270° West 140 161 5,900  Level Toronto Center
02:49PM 43.1333 -81.5667 270° West 140 161 5,900  Level Toronto Center
02:50PM 43.1333 -81.6167 270° West 140 161 5,900 50 Level Toronto Center
02:51PM 43.1333 -81.6833 270° West 140 161 6,000  Climbing Toronto Center
02:52PM 43.1333 -81.7333 270° West 140 161 5,900 -50 Descending Toronto Center
02:53PM 43.1333 -81.7833 270° West 140 161 5,900  Level Toronto Center
02:54PM 43.1333 -81.8500 270° West 140 161 5,900 50 Level Toronto Center
02:55PM 43.1333 -81.9000 270° West 140 161 6,000  Climbing Toronto Center
02:56PM 43.1167 -81.9667 251° West 140 161 5,900  Descending Toronto Center
02:57PM 43.1233 -82.0531 276° West 144 166 6,000 38 Climbing Cleveland Center
02:58PM 43.1200 -82.1075 265° West 144 166 6,000  Level Cleveland Center
02:59PM 43.1172 -82.1600 266° West 142 163 6,000 -48 Level Cleveland Center
03:00PM 43.1142 -82.2131 266° West 140 161 5,900 -48 Descending Cleveland Center
03:01PM 43.1122 -82.2639 267° West 136 157 5,900  Level Cleveland Center
03:03PM 43.1100 -82.3178 267° West 140 161 5,900  Level Cleveland Center
03:04PM 43.1061 -82.3808 265° West 140 161 5,900  Level Cleveland Center
03:05PM 43.1036 -82.4319 266° West 136 157 5,900  Level Cleveland Center
03:06PM 43.1008 -82.4825 266° West 134 154 5,900  Level Cleveland Center
03:07PM 43.0992 -82.5397 268° West 141 162 5,900 -48 Level Cleveland Center
03:08PM 43.0961 -82.5950 266° West 138 159 5,800  Descending Cleveland Center
03:09PM 43.0944 -82.6483 268° West 142 163 5,900 48 Climbing Cleveland Center
03:10PM 43.0906 -82.7033 264° West 136 157 5,900 48 Level Cleveland Center
03:11PM 43.0883 -82.7544 267° West 134 154 6,000 48 Climbing Cleveland Center
03:12PM 43.0853 -82.8111 266° West 140 161 6,000  Level Cleveland Center
03:13PM 43.0822 -82.8689 266° West 142 163 6,000 -48 Level Cleveland Center
03:14PM 43.0797 -82.9200 266° West 138 159 5,900 -48 Descending Cleveland Center
03:15PM 43.0772 -82.9778 267° West 141 162 5,900  Level Cleveland Center
03:16PM 43.0722 -83.0294 262° West 141 162 5,900 48 Level Cleveland Center
03:17PM 43.0681 -83.0831 264° West 133 153 6,000 48 Climbing Cleveland Center
03:18PM 43.0694 -83.1347 272° West 137 158 6,000  Level Cleveland Center
03:19PM 43.0636 -83.1881 262° West 133 153 6,000  Level Cleveland Center
03:20PM 43.0608 -83.2383 266° West 134 154 6,000 -48 Level Cleveland Center
03:21PM 43.0578 -83.2947 266° West 137 158 5,900  Descending Cleveland Center
03:22PM 43.0544 -83.3469 265° West 139 160 6,000 48 Climbing Cleveland Center
03:23PM 43.0514 -83.4017 266° West 136 157 6,000  Level Cleveland Center
03:24PM 43.0481 -83.4525 265° West 137 158 6,000 -48 Level Cleveland Center
03:25PM 43.0444 -83.5075 265° West 136 157 5,900 -336 Descending Cleveland Center
03:26PM 43.0403 -83.5689 265° West 150 173 5,300 -435 Descending Cleveland Center
03:27PM 43.0364 -83.6264 265° West 154 177 5,000 -339 Descending Cleveland Center
03:28PM 43.0319 -83.6869 264° West 150 173 4,600 -435 Descending Cleveland Center
03:29PM 43.0283 -83.7425 265° West 151 174 4,100 -339 Descending Cleveland Center
03:30PM 43.0247 -83.8017 265° West 148 170 3,900 -97 Descending Cleveland Center
03:31PM 43.0214 -83.8592 265° West 143 165 3,900  Level Cleveland Center
03:33PM 43.0178 -83.9128 265° West 143 165 3,900 -48 Level Cleveland Center
03:34PM 43.0142 -83.9700 265° West 142 163 3,800 -48 Descending Cleveland Center
03:35PM 43.0108 -84.0214 265° West 138 159 3,800 48 Level Cleveland Center
03:36PM 43.0072 -84.0756 265° West 134 154 3,900 48 Climbing Cleveland Center
03:37PM 43.0039 -84.1253 265° West 133 153 3,900  Level Cleveland Center
03:38PM 43.0003 -84.1778 265° West 130 150 3,900  Level Cleveland Center
03:39PM 42.9969 -84.2281 265° West 134 154 3,900  Level Cleveland Center
03:40PM 42.9931 -84.2817 264° West 132 152 3,900 -48 Level Cleveland Center
03:41PM 42.9892 -84.3342 264° West 131 151 3,800 48 Descending Cleveland Center
03:42PM 42.9856 -84.3839 264° West 134 154 4,000 61 Climbing Cleveland Center
03:42PM 42.9839 -84.4114 265° West 131 151 3,900 -61 Descending Chicago Center
03:43PM 42.9811 -84.4606 266° West 131 151 3,900 -48 Level Chicago Center
03:45PM 42.9781 -84.5111 265° West 132 152 3,800 -48 Descending Chicago Center
03:46PM 42.9731 -84.5611 262° West 133 153 3,800 -144 Level Chicago Center
03:47PM 42.9644 -84.6217 259° West 134 154 3,500 -384 Descending Chicago Center
03:48PM 42.9556 -84.6758 257° West 139 160 3,000 -194 Descending Chicago Center
03:49PM 42.9486 -84.7281 260° West 142 163 3,100 97 Climbing Chicago Center
03:50PM 42.9431 -84.7728 260° West 131 151 3,200 48 Climbing Chicago Center
03:51PM 42.9364 -84.8172 258° West 125 144 3,200 -48 Level Chicago Center
03:52PM 42.9383 -84.8617 273° West 121 139 3,100 -290 Descending Chicago Center
03:53PM 42.9386 -84.9167 270° West 121 139 2,600 -435 Descending Chicago Center
03:54PM 42.9375 -84.9633 268° West 122 140 2,200 -435 Descending Chicago Center
03:55PM 42.9367 -85.0006 268° West 111 128 1,700 -339 Descending Chicago Center
03:56PM 42.9361 -85.0322 269° West 105 121 1,500 -194 Descending Chicago Center
03:58PM 42.9333 -85.0500 270° West  Level FlightAware Approximate
04:05PM 42.9379 -85.0606 270° West  Level Estimated
04:06PM 42.9379 -85.0606 270° West  Level Estimated
04:07PM 42.9379 -85.0606 270° West  Level Estimated
04:08PM 42.9379 -85.0606 270° West  Level Estimated
04:09PM 42.9379 -85.0606 270° West  Level Estimated
04:10PM 42.9379 -85.0606 270° West  Level Estimated
04:11PM 42.9379 -85.0606 270° West  Level Estimated
04:12PM 42.9379 -85.0606 270° West  Level Estimated